createdAt,value
2019-04-27T00:00:16.162Z,16.71
2019-04-27T00:02:48.793Z,16.70
2019-04-27T00:05:37.513Z,16.71
2019-04-27T00:08:28.466Z,16.70
2019-04-27T00:11:05.171Z,16.66
2019-04-27T00:13:34.851Z,16.62
2019-04-27T00:16:09.845Z,16.61
2019-04-27T00:18:57.970Z,16.59
2019-04-27T00:21:43.083Z,16.58
2019-04-27T00:24:15.838Z,16.54
2019-04-27T00:26:46.832Z,16.51
2019-04-27T00:29:19.447Z,16.51
2019-04-27T00:31:51.584Z,16.50
2019-04-27T00:34:23.624Z,16.51
2019-04-27T00:36:56.273Z,16.50
2019-04-27T00:39:34.550Z,16.51
2019-04-27T00:42:05.544Z,16.51
2019-04-27T00:44:36.511Z,16.48
2019-04-27T00:47:07.975Z,16.48
2019-04-27T00:49:39.116Z,16.49
2019-04-27T00:52:10.117Z,16.49
2019-04-27T00:54:41.088Z,16.49
2019-04-27T00:57:13.719Z,16.49
2019-04-27T01:00:03.192Z,16.49
2019-04-27T01:02:43.579Z,16.49
2019-04-27T01:05:19.246Z,16.44
2019-04-27T01:07:50.305Z,16.42
2019-04-27T01:10:21.316Z,16.43
2019-04-27T01:12:53.095Z,16.41
2019-04-27T01:15:24.162Z,16.41
2019-04-27T01:18:11.015Z,16.40
2019-04-27T01:20:30.117Z,16.39
2019-04-27T01:23:01.248Z,16.38
2019-04-27T01:25:33.884Z,16.35
2019-04-27T01:28:21.507Z,16.35
2019-04-27T01:30:54.814Z,16.32
2019-04-27T01:33:25.786Z,16.26
2019-04-27T01:35:56.757Z,16.25
2019-04-27T01:38:29.095Z,16.24
2019-04-27T01:41:00.615Z,16.23
2019-04-27T01:43:32.462Z,16.21
2019-04-27T01:46:03.426Z,16.18
2019-04-27T01:48:34.421Z,16.16
2019-04-27T01:51:05.565Z,16.16
2019-04-27T01:53:36.586Z,16.16
2019-04-27T01:56:09.262Z,16.13
2019-04-27T01:58:40.404Z,16.12
2019-04-27T02:01:18.791Z,16.10
2019-04-27T02:03:58.952Z,16.08
2019-04-27T02:06:30.565Z,16.04
2019-04-27T02:09:01.535Z,16.00
2019-04-27T02:11:32.995Z,15.97
2019-04-27T02:14:03.962Z,15.96
2019-04-27T02:16:34.961Z,15.94
2019-04-27T02:19:06.027Z,15.91
2019-04-27T02:21:37.006Z,15.91
2019-04-27T02:24:09.776Z,15.89
2019-04-27T02:26:41.053Z,15.87
2019-04-27T02:29:13.656Z,15.85
2019-04-27T02:31:56.431Z,15.84
2019-04-27T02:34:32.308Z,15.82
2019-04-27T02:37:03.455Z,15.78
2019-04-27T02:39:34.430Z,15.75
2019-04-27T02:42:06.003Z,15.72
2019-04-27T02:44:40.556Z,15.70
2019-04-27T02:47:11.671Z,15.68
2019-04-27T02:49:42.698Z,15.67
2019-04-27T02:52:15.310Z,15.65
2019-04-27T02:54:46.289Z,15.65
2019-04-27T02:57:19.450Z,15.64
2019-04-27T02:59:50.607Z,15.62
2019-04-27T03:02:34.830Z,15.61
2019-04-27T03:05:06.779Z,15.60
2019-04-27T03:07:36.988Z,15.57
2019-04-27T03:10:09.870Z,15.51
2019-04-27T03:12:42.653Z,15.52
2019-04-27T03:15:24.608Z,15.53
2019-04-27T03:18:13.312Z,15.54
2019-04-27T03:21:00.201Z,15.51
2019-04-27T03:23:30.526Z,15.48
2019-04-27T03:26:14.994Z,15.46
2019-04-27T03:28:45.990Z,15.46
2019-04-27T03:31:21.063Z,15.43
2019-04-27T03:33:58.298Z,15.44
2019-04-27T03:36:23.556Z,15.43
2019-04-27T03:38:54.519Z,15.42
2019-04-27T03:41:25.517Z,15.41
2019-04-27T03:43:56.498Z,15.39
2019-04-27T03:46:27.501Z,15.39
2019-04-27T03:49:00.011Z,15.37
2019-04-27T03:51:33.766Z,15.36
2019-04-27T03:54:06.399Z,15.36
2019-04-27T03:56:41.732Z,15.34
2019-04-27T03:59:14.368Z,15.32
2019-04-27T04:01:45.373Z,15.29
2019-04-27T04:04:16.346Z,15.29
2019-04-27T04:06:49.219Z,15.27
2019-04-27T04:09:21.700Z,15.26
2019-04-27T04:12:02.281Z,15.26
2019-04-27T04:14:36.815Z,15.23
2019-04-27T04:17:12.822Z,15.20
2019-04-27T04:19:53.911Z,15.20
2019-04-27T04:22:16.299Z,15.17
2019-04-27T04:24:47.345Z,15.16
2019-04-27T04:27:20.051Z,15.15
2019-04-27T04:29:51.471Z,15.16
2019-04-27T04:32:22.452Z,15.15
2019-04-27T04:34:53.441Z,15.15
2019-04-27T04:37:24.418Z,15.15
2019-04-27T04:39:55.423Z,15.14
2019-04-27T04:42:29.988Z,15.13
2019-04-27T04:45:05.305Z,15.14
2019-04-27T04:47:43.929Z,15.13
2019-04-27T04:50:15.577Z,15.10
2019-04-27T04:52:46.632Z,15.10
2019-04-27T04:55:20.132Z,15.10
2019-04-27T04:57:51.387Z,15.11
2019-04-27T05:00:22.420Z,15.13
2019-04-27T05:02:53.428Z,15.16
2019-04-27T05:05:24.400Z,15.20
2019-04-27T05:07:55.419Z,15.24
2019-04-27T05:10:26.406Z,15.29
2019-04-27T05:12:58.970Z,15.32
2019-04-27T05:15:30.123Z,15.37
2019-04-27T05:18:02.007Z,15.46
2019-04-27T05:20:33.819Z,15.59
2019-04-27T05:23:04.651Z,15.75
2019-04-27T05:25:35.613Z,16.06
2019-04-27T05:28:06.614Z,16.33
2019-04-27T05:30:39.068Z,16.49
2019-04-27T05:33:10.226Z,16.54
2019-04-27T05:35:41.240Z,16.55
2019-04-27T05:38:13.491Z,16.56
2019-04-27T05:40:44.657Z,16.58
2019-04-27T05:43:17.263Z,16.58
2019-04-27T05:46:21.061Z,16.58
2019-04-27T05:48:52.899Z,16.57
2019-04-27T05:51:23.868Z,16.49
2019-04-27T05:53:54.870Z,16.50
2019-04-27T05:56:25.858Z,16.53
2019-04-27T05:58:56.917Z,16.56
2019-04-27T06:01:29.582Z,16.59
2019-04-27T06:04:00.650Z,16.63
2019-04-27T06:06:32.295Z,16.65
2019-04-27T06:09:03.341Z,16.68
2019-04-27T06:11:34.307Z,16.71
2019-04-27T06:14:05.461Z,16.73
2019-04-27T06:16:36.427Z,16.75
2019-04-27T06:19:07.425Z,16.78
2019-04-27T06:21:40.138Z,16.80
2019-04-27T06:24:11.061Z,16.83
2019-04-27T06:26:42.063Z,16.89
2019-04-27T06:29:13.033Z,16.96
2019-04-27T06:31:44.298Z,17.05
2019-04-27T06:34:15.271Z,17.12
2019-04-27T06:36:46.251Z,17.21
2019-04-27T06:39:20.242Z,17.28
2019-04-27T06:41:51.204Z,17.37
2019-04-27T06:44:22.158Z,17.42
2019-04-27T06:46:53.123Z,17.46
2019-04-27T06:49:24.123Z,17.51
2019-04-27T06:51:55.081Z,17.55
2019-04-27T06:54:26.062Z,17.60
2019-04-27T06:56:57.041Z,17.62
2019-04-27T06:59:28.862Z,17.66
2019-04-27T07:02:00.873Z,17.69
2019-04-27T07:04:32.391Z,17.72
2019-04-27T07:07:03.379Z,17.78
2019-04-27T07:09:34.344Z,17.83
2019-04-27T07:12:05.395Z,17.91
2019-04-27T07:14:36.357Z,17.99
2019-04-27T07:17:08.899Z,18.09
2019-04-27T07:19:39.915Z,18.21
2019-04-27T07:22:11.466Z,18.30
2019-04-27T07:24:42.553Z,18.39
2019-04-27T07:27:13.527Z,18.42
2019-04-27T07:29:44.801Z,18.44
2019-04-27T07:32:15.840Z,18.45
2019-04-27T07:34:46.823Z,18.48
2019-04-27T07:37:19.431Z,18.52
2019-04-27T07:39:50.661Z,18.55
2019-04-27T07:42:21.968Z,18.61
2019-04-27T07:45:03.556Z,18.65
2019-04-27T07:47:34.510Z,18.72
2019-04-27T07:50:06.392Z,18.79
2019-04-27T07:52:38.747Z,18.86
2019-04-27T07:55:09.435Z,18.85
2019-04-27T07:57:40.420Z,18.94
2019-04-27T08:00:12.075Z,18.99
2019-04-27T08:02:43.067Z,19.07
2019-04-27T08:05:14.089Z,19.13
2019-04-27T08:07:45.048Z,19.19
2019-04-27T08:10:16.541Z,19.25
2019-04-27T08:12:47.525Z,19.34
2019-04-27T08:15:18.918Z,19.46
2019-04-27T08:17:50.127Z,19.54
2019-04-27T08:20:21.343Z,19.62
2019-04-27T08:22:52.848Z,19.70
2019-04-27T08:25:23.833Z,19.77
2019-04-27T08:28:02.405Z,19.80
2019-04-27T08:30:40.853Z,19.81
2019-04-27T08:33:14.233Z,19.82
2019-04-27T08:35:45.212Z,19.82
2019-04-27T08:38:16.207Z,19.84
2019-04-27T08:40:47.169Z,19.87
2019-04-27T08:43:19.124Z,19.91
2019-04-27T08:45:50.215Z,19.94
2019-04-27T08:48:33.959Z,20.00
2019-04-27T08:50:53.865Z,20.03
2019-04-27T08:53:24.826Z,20.08
2019-04-27T08:55:55.809Z,20.11
2019-04-27T08:58:28.513Z,20.13
2019-04-27T09:00:59.660Z,20.18
2019-04-27T09:03:30.615Z,20.23
2019-04-27T09:06:03.245Z,20.30
2019-04-27T09:08:35.864Z,20.36
2019-04-27T09:11:11.168Z,20.41
2019-04-27T09:13:46.190Z,20.46
2019-04-27T09:16:18.792Z,20.58
2019-04-27T09:18:51.391Z,20.67
2019-04-27T09:21:24.014Z,20.73
2019-04-27T09:23:54.991Z,20.84
2019-04-27T09:26:25.952Z,20.93
2019-04-27T09:28:56.939Z,21.05
2019-04-27T09:31:28.824Z,21.17
2019-04-27T09:33:59.838Z,21.30
2019-04-27T09:36:30.828Z,21.40
2019-04-27T09:39:01.819Z,21.47
2019-04-27T09:41:32.802Z,21.49
2019-04-27T09:44:05.722Z,21.48
2019-04-27T09:46:36.469Z,21.51
2019-04-27T09:49:07.497Z,21.49
2019-04-27T09:51:38.465Z,21.45
2019-04-27T09:54:09.413Z,21.47
2019-04-27T09:56:40.446Z,21.49
2019-04-27T09:59:11.774Z,21.39
2019-04-27T10:01:42.750Z,21.34
2019-04-27T10:04:13.744Z,21.36
2019-04-27T10:06:46.485Z,21.34
2019-04-27T10:09:17.503Z,21.26
2019-04-27T10:11:48.461Z,21.16
2019-04-27T10:14:19.447Z,21.04
2019-04-27T10:16:50.401Z,20.91
2019-04-27T10:19:28.729Z,20.81
2019-04-27T10:21:54.037Z,20.72
2019-04-27T10:24:25.770Z,20.66
2019-04-27T10:26:56.755Z,20.69
2019-04-27T10:29:29.360Z,20.75
2019-04-27T10:32:00.334Z,20.77
2019-04-27T10:34:32.953Z,20.80
2019-04-27T10:37:03.917Z,20.84
2019-04-27T10:39:36.062Z,20.87
2019-04-27T10:42:07.214Z,20.91
2019-04-27T10:44:38.191Z,20.94
2019-04-27T10:47:09.167Z,21.05
2019-04-27T10:49:40.218Z,21.17
2019-04-27T10:52:11.174Z,21.26
2019-04-27T10:54:42.144Z,21.33
2019-04-27T10:57:13.100Z,21.41
2019-04-27T10:59:44.090Z,21.44
2019-04-27T11:02:18.617Z,21.54
2019-04-27T11:04:49.516Z,21.63
2019-04-27T11:07:22.109Z,21.75
2019-04-27T11:09:53.244Z,21.85
2019-04-27T11:12:24.210Z,21.97
2019-04-27T11:15:01.288Z,22.06
2019-04-27T11:17:34.039Z,22.15
2019-04-27T11:20:08.673Z,22.22
2019-04-27T11:22:39.650Z,22.30
2019-04-27T11:25:10.932Z,22.32
2019-04-27T11:27:41.908Z,22.36
2019-04-27T11:30:13.231Z,22.39
2019-04-27T11:32:44.172Z,22.41
2019-04-27T11:35:18.414Z,22.48
2019-04-27T11:37:51.159Z,22.53
2019-04-27T11:40:23.446Z,22.59
2019-04-27T11:42:57.039Z,22.60
2019-04-27T11:45:28.437Z,22.63
2019-04-27T11:48:00.295Z,22.70
2019-04-27T11:50:31.239Z,22.79
2019-04-27T11:53:02.226Z,22.82
2019-04-27T11:55:33.204Z,22.83
2019-04-27T11:58:04.148Z,22.89
2019-04-27T12:00:36.462Z,22.97
2019-04-27T12:03:07.451Z,23.00
2019-04-27T12:05:38.419Z,23.07
2019-04-27T12:08:09.403Z,23.10
2019-04-27T12:10:40.372Z,23.07
2019-04-27T12:13:11.795Z,23.05
2019-04-27T12:15:42.762Z,22.98
2019-04-27T12:18:13.717Z,22.91
2019-04-27T12:20:45.783Z,22.88
2019-04-27T12:23:16.868Z,22.86
2019-04-27T12:25:48.218Z,22.82
2019-04-27T12:31:25.790Z,22.62
2019-04-27T12:33:56.840Z,22.48
2019-04-27T12:36:28.765Z,22.36
2019-04-27T12:38:59.714Z,22.28
2019-04-27T12:41:30.682Z,22.18
2019-04-27T12:44:01.647Z,22.11
2019-04-27T12:46:32.632Z,22.05
2019-04-27T12:49:03.772Z,21.98
2019-04-27T12:51:35.592Z,21.91
2019-04-27T12:54:11.444Z,21.84
2019-04-27T12:56:49.908Z,21.78
2019-04-27T12:59:28.391Z,21.72
2019-04-27T13:01:59.381Z,21.65
2019-04-27T13:04:30.329Z,21.56
2019-04-27T13:07:05.924Z,21.51
2019-04-27T13:09:37.086Z,21.44
2019-04-27T13:12:08.065Z,21.38
2019-04-27T13:14:39.048Z,21.32
2019-04-27T13:17:09.995Z,21.27
2019-04-27T13:19:40.970Z,21.22
2019-04-27T13:22:11.923Z,21.13
2019-04-27T13:24:42.920Z,21.06
2019-04-27T13:27:13.894Z,20.99
2019-04-27T13:29:46.554Z,20.95
2019-04-27T13:32:17.671Z,20.91
2019-04-27T13:34:48.638Z,20.87
2019-04-27T13:37:33.353Z,20.79
2019-04-27T13:40:09.411Z,20.67
2019-04-27T13:42:42.841Z,20.54
2019-04-27T13:45:21.249Z,20.43
2019-04-27T13:47:57.938Z,20.35
2019-04-27T13:50:30.534Z,20.20
2019-04-27T13:53:01.539Z,20.03
2019-04-27T13:55:32.541Z,19.80
2019-04-27T13:58:03.605Z,19.54
2019-04-27T14:00:37.649Z,19.31
2019-04-27T14:03:07.315Z,19.10
2019-04-27T14:05:38.268Z,18.92
2019-04-27T14:08:09.276Z,18.75
2019-04-27T14:10:40.208Z,18.62
2019-04-27T14:13:11.216Z,18.52
2019-04-27T14:15:42.558Z,18.42
2019-04-27T14:18:13.562Z,18.34
2019-04-27T14:20:45.453Z,18.26
2019-04-27T14:23:18.824Z,18.22
2019-04-27T14:25:49.880Z,18.18
2019-04-27T14:28:20.832Z,18.13
2019-04-27T14:30:52.245Z,18.10
2019-04-27T14:33:23.224Z,18.09
2019-04-27T14:35:54.211Z,18.07
2019-04-27T14:38:25.154Z,18.06
2019-04-27T14:40:56.147Z,18.04
2019-04-27T14:43:28.606Z,18.03
2019-04-27T14:45:59.667Z,18.02
2019-04-27T14:48:30.621Z,18.00
2019-04-27T14:51:01.906Z,18.00
2019-04-27T14:53:32.862Z,17.99
2019-04-27T14:56:03.846Z,17.99
2019-04-27T14:58:35.733Z,17.99
2019-04-27T15:01:05.913Z,18.00
2019-04-27T15:03:36.746Z,17.94
2019-04-27T15:06:07.714Z,17.96
2019-04-27T15:08:42.704Z,17.97
2019-04-27T15:11:17.462Z,17.98
2019-04-27T15:13:48.083Z,17.98
2019-04-27T15:16:17.243Z,17.98
2019-04-27T15:18:50.096Z,17.97
2019-04-27T15:21:21.124Z,17.95
2019-04-27T15:23:53.266Z,17.95
2019-04-27T15:26:24.215Z,17.94
2019-04-27T15:28:56.841Z,17.92
2019-04-27T15:31:32.478Z,17.90
2019-04-27T15:34:13.197Z,17.90
2019-04-27T15:36:52.758Z,17.88
2019-04-27T15:39:40.071Z,17.87
2019-04-27T15:42:18.987Z,17.85
2019-04-27T15:44:50.160Z,17.81
2019-04-27T15:47:21.112Z,17.79
2019-04-27T15:49:54.700Z,17.79
2019-04-27T15:52:31.822Z,17.78
2019-04-27T15:54:58.437Z,17.77
2019-04-27T15:57:29.413Z,17.74
2019-04-27T16:00:00.380Z,17.73
2019-04-27T16:02:32.815Z,17.73
2019-04-27T16:05:04.816Z,17.67
2019-04-27T16:07:35.787Z,17.56
2019-04-27T16:10:08.985Z,17.37
2019-04-27T16:12:54.797Z,17.14
2019-04-27T16:15:17.492Z,16.91
2019-04-27T16:17:53.414Z,16.75
2019-04-27T16:20:29.285Z,16.62
2019-04-27T16:22:56.804Z,16.53
2019-04-27T16:25:28.225Z,16.47
2019-04-27T16:27:58.204Z,16.40
2019-04-27T16:30:29.161Z,16.31
2019-04-27T16:33:00.153Z,16.21
2019-04-27T16:35:31.105Z,16.11
2019-04-27T16:38:03.717Z,16.03
2019-04-27T16:40:34.675Z,15.96
2019-04-27T16:43:05.740Z,15.91
2019-04-27T16:45:38.916Z,15.87
2019-04-27T16:48:09.893Z,15.85
2019-04-27T16:50:40.953Z,15.83
2019-04-27T16:53:12.559Z,15.82
2019-04-27T16:55:43.664Z,15.80
2019-04-27T16:58:16.199Z,15.77
2019-04-27T17:00:48.079Z,15.75
2019-04-27T17:03:18.337Z,15.72
2019-04-27T17:05:49.144Z,15.62
2019-04-27T17:08:22.328Z,15.65
2019-04-27T17:10:52.767Z,15.61
2019-04-27T17:13:24.586Z,15.61
2019-04-27T17:15:58.965Z,15.61
2019-04-27T17:18:32.099Z,15.62
2019-04-27T17:21:18.874Z,15.62
2019-04-27T17:23:44.487Z,15.65
2019-04-27T17:26:21.759Z,15.65
2019-04-27T17:28:50.858Z,15.65
2019-04-27T17:31:23.628Z,15.67
2019-04-27T17:33:56.311Z,15.67
2019-04-27T17:36:29.168Z,15.67
2019-04-27T17:38:59.963Z,15.68
2019-04-27T17:41:30.931Z,15.70
2019-04-27T17:44:01.906Z,15.71
2019-04-27T17:46:32.867Z,15.73
2019-04-27T17:49:03.820Z,15.74
2019-04-27T17:51:35.144Z,15.76
2019-04-27T17:54:11.272Z,15.78
2019-04-27T17:56:48.255Z,15.78
2019-04-27T17:59:16.908Z,15.78
2019-04-27T18:01:45.420Z,15.78
2019-04-27T18:04:18.389Z,15.79
2019-04-27T18:06:49.050Z,15.80
2019-04-27T18:09:21.950Z,15.81
2019-04-27T18:11:54.572Z,15.83
2019-04-27T18:14:32.563Z,15.84
2019-04-27T18:17:03.612Z,15.85
2019-04-27T18:19:40.297Z,15.84
2019-04-27T18:22:10.513Z,15.84
2019-04-27T18:24:48.875Z,15.84
2019-04-27T18:27:37.990Z,15.84
2019-04-27T18:30:15.110Z,15.84
2019-04-27T18:32:46.103Z,15.81
2019-04-27T18:35:19.904Z,15.81
2019-04-27T18:37:53.665Z,15.81
2019-04-27T18:40:24.195Z,15.81
2019-04-27T18:42:55.144Z,15.81
2019-04-27T18:45:26.091Z,15.81
2019-04-27T18:47:59.390Z,15.83
2019-04-27T18:50:38.468Z,15.82
2019-04-27T18:53:20.284Z,15.83
2019-04-27T18:55:56.538Z,15.80
2019-04-27T18:58:22.182Z,15.79
2019-04-27T19:00:53.169Z,15.79
2019-04-27T19:03:24.177Z,15.79
2019-04-27T19:05:55.122Z,15.79
2019-04-27T19:08:27.870Z,15.80
2019-04-27T19:11:00.396Z,15.81
2019-04-27T19:13:32.758Z,15.82
2019-04-27T19:16:03.738Z,15.80
2019-04-27T19:18:34.725Z,15.81
2019-04-27T19:21:05.661Z,15.80
2019-04-27T19:23:38.224Z,15.78
2019-04-27T19:26:16.311Z,15.77
2019-04-27T19:29:05.289Z,15.78
2019-04-27T19:31:38.340Z,15.75
2019-04-27T19:34:09.331Z,15.71
2019-04-27T19:36:40.318Z,15.70
2019-04-27T19:39:14.074Z,15.70
2019-04-27T19:41:56.891Z,15.69
2019-04-27T19:44:18.811Z,15.68
2019-04-27T19:46:51.018Z,15.68
2019-04-27T19:49:21.965Z,15.68
2019-04-27T19:51:53.024Z,15.67
2019-04-27T19:54:24.424Z,15.66
2019-04-27T19:56:55.414Z,15.64
2019-04-27T19:59:28.128Z,15.63
2019-04-27T20:02:00.739Z,15.62
2019-04-27T20:04:34.056Z,15.60
2019-04-27T20:07:05.097Z,15.59
2019-04-27T20:09:37.679Z,15.59
2019-04-27T20:12:10.401Z,15.58
2019-04-27T20:14:56.325Z,15.57
2019-04-27T20:17:31.219Z,15.56
2019-04-27T20:20:03.353Z,15.54
2019-04-27T20:22:33.499Z,15.52
2019-04-27T20:25:05.258Z,15.44
2019-04-27T20:27:46.145Z,15.44
2019-04-27T20:30:11.106Z,15.38
2019-04-27T20:32:42.363Z,15.38
2019-04-27T20:35:13.330Z,15.38
2019-04-27T20:37:44.304Z,15.38
2019-04-27T20:40:15.707Z,15.38
2019-04-27T20:42:47.659Z,15.36
2019-04-27T20:45:18.638Z,15.35
2019-04-27T20:47:52.436Z,15.35
2019-04-27T20:50:22.263Z,15.34
2019-04-27T20:52:54.562Z,15.34
2019-04-27T20:55:25.539Z,15.33
2019-04-27T20:58:02.349Z,15.33
2019-04-27T21:00:32.373Z,15.33
2019-04-27T21:03:04.987Z,15.31
2019-04-27T21:05:37.576Z,15.29
2019-04-27T21:08:12.908Z,15.29
2019-04-27T21:10:43.869Z,15.28
2019-04-27T21:13:14.839Z,15.27
2019-04-27T21:15:45.825Z,15.27
2019-04-27T21:18:16.775Z,15.26
2019-04-27T21:20:47.904Z,15.24
2019-04-27T21:23:20.896Z,15.18
2019-04-27T21:25:53.690Z,15.20
2019-04-27T21:28:25.575Z,15.20
2019-04-27T21:30:55.855Z,15.21
2019-04-27T21:33:26.663Z,15.15
2019-04-27T21:35:57.646Z,15.16
2019-04-27T21:38:28.597Z,15.16
2019-04-27T21:40:59.581Z,15.17
2019-04-27T21:43:30.543Z,15.16
2019-04-27T21:46:01.823Z,15.16
2019-04-27T21:48:33.706Z,15.16
2019-04-27T21:51:03.901Z,15.17
2019-04-27T21:53:39.053Z,15.11
2019-04-27T21:56:11.190Z,15.11
2019-04-27T21:58:48.412Z,15.10
2019-04-27T22:01:23.966Z,15.11
2019-04-27T22:03:54.921Z,15.10
2019-04-27T22:06:25.896Z,15.11
2019-04-27T22:08:56.850Z,15.10
2019-04-27T22:11:27.837Z,15.11
2019-04-27T22:13:58.790Z,15.11
2019-04-27T22:16:31.466Z,15.11
2019-04-27T22:19:02.648Z,15.10
2019-04-27T22:21:33.612Z,15.11
2019-04-27T22:24:08.713Z,15.10
2019-04-27T22:26:41.393Z,15.10
2019-04-27T22:29:12.354Z,15.10
2019-04-27T22:31:43.342Z,15.09
2019-04-27T22:34:14.294Z,15.08
2019-04-27T22:36:45.267Z,15.08
2019-04-27T22:39:21.047Z,15.08
2019-04-27T22:41:57.783Z,15.08
2019-04-27T22:44:33.275Z,15.03
2019-04-27T22:47:04.235Z,15.02
2019-04-27T22:49:35.213Z,15.00
2019-04-27T22:52:06.175Z,15.00
2019-04-27T22:54:37.155Z,14.99
2019-04-27T22:57:11.336Z,14.97
2019-04-27T22:59:49.782Z,14.97
2019-04-27T23:02:29.394Z,14.97
2019-04-27T23:05:02.437Z,14.94
2019-04-27T23:07:33.509Z,14.93
2019-04-27T23:10:07.258Z,14.91
2019-04-27T23:12:38.236Z,14.90
2019-04-27T23:15:10.924Z,14.89
2019-04-27T23:20:52.237Z,14.88
2019-04-27T23:23:23.164Z,14.84
2019-04-27T23:25:54.121Z,14.84
2019-04-27T23:28:25.098Z,14.84
2019-04-27T23:31:16.816Z,14.84
2019-04-27T23:33:49.429Z,14.86
2019-04-27T23:36:21.593Z,14.83
2019-04-27T23:38:52.904Z,14.84
2019-04-27T23:41:23.960Z,14.84
2019-04-27T23:43:55.873Z,14.85
2019-04-27T23:46:26.063Z,14.85
2019-04-27T23:48:56.902Z,14.79
2019-04-27T23:51:35.246Z,14.80
2019-04-27T23:54:06.231Z,14.81
2019-04-27T23:56:37.213Z,14.81
2019-04-27T23:59:08.194Z,14.80
